Time,TemperatureF,DewpointF,PressureIn,WindDirection,WindDirectionDegrees,WindSpeedMPH,WindSpeedGustMPH,Humidity,HourlyPrecipIn,Conditions,Clouds,dailyrainin,SoftwareType,DateUTC
2013-03-05 00:00:00,26.3,14.9,30.05,South,180,0.0,0.0,62,0.00,,,0.00,WUHU216HW,2013-03-05 05:00:00,
2013-03-05 00:05:00,26.5,15.5,30.05,East,90,0.4,0.7,63,0.00,,,0.00,WUHU216HW,2013-03-05 05:05:00,
2013-03-05 00:10:00,26.6,16.4,30.05,ENE,68,0.4,0.7,65,0.00,,,0.00,WUHU216HW,2013-03-05 05:10:00,
2013-03-05 00:15:00,26.6,15.3,30.05,ENE,68,0.0,0.7,62,0.00,,,0.00,WUHU216HW,2013-03-05 05:15:00,
2013-03-05 00:20:00,26.6,15.3,30.05,East,90,0.0,0.4,62,0.00,,,0.00,WUHU216HW,2013-03-05 05:20:00,
2013-03-05 00:25:00,26.8,15.1,30.04,SE,135,0.9,1.1,61,0.00,,,0.00,WUHU216HW,2013-03-05 05:25:00,
2013-03-05 00:30:00,27.0,14.9,30.04,SW,225,1.1,1.1,60,0.00,,,0.00,WUHU216HW,2013-03-05 05:30:00,
2013-03-05 00:35:00,27.4,16.4,30.05,NNE,23,0.0,1.1,63,0.00,,,0.00,WUHU216HW,2013-03-05 05:35:00,
2013-03-05 00:40:00,27.4,16.0,30.05,NNE,23,0.0,1.1,62,0.00,,,0.00,WUHU216HW,2013-03-05 05:40:00,
2013-03-05 00:45:00,27.4,16.4,30.05,NNE,23,0.0,0.0,63,0.00,,,0.00,WUHU216HW,2013-03-05 05:45:00,
2013-03-05 00:50:00,27.4,16.0,30.05,NNE,23,0.0,0.0,62,0.00,,,0.00,WUHU216HW,2013-03-05 05:50:00,
2013-03-05 00:55:00,27.5,16.2,30.05,NNW,338,0.0,0.4,62,0.00,,,0.00,WUHU216HW,2013-03-05 05:55:00,
2013-03-05 01:00:00,27.7,16.4,30.05,NNW,338,0.0,0.4,62,0.00,,,0.00,WUHU216HW,2013-03-05 06:00:00,
2013-03-05 01:05:00,27.7,16.4,30.06,West,270,0.4,0.4,62,0.00,,,0.00,WUHU216HW,2013-03-05 06:05:00,
2013-03-05 01:10:00,27.7,16.4,30.06,West,270,0.4,0.4,62,0.00,,,0.00,WUHU216HW,2013-03-05 06:10:00,
2013-03-05 01:15:00,27.9,16.6,30.07,West,270,0.0,0.7,62,0.00,,,0.00,WUHU216HW,2013-03-05 06:15:00,
2013-03-05 01:20:00,27.9,16.6,30.07,West,270,0.0,0.7,62,0.00,,,0.00,WUHU216HW,2013-03-05 06:20:00,
2013-03-05 01:25:00,28.1,16.7,30.07,SSW,203,0.9,0.9,62,0.00,,,0.00,WUHU216HW,2013-03-05 06:25:00,
2013-03-05 01:30:00,28.1,16.7,30.07,SSW,203,0.0,0.9,62,0.00,,,0.00,WUHU216HW,2013-03-05 06:30:00,
2013-03-05 01:35:00,28.3,16.9,30.07,SSW,203,0.0,0.9,62,0.00,,,0.00,WUHU216HW,2013-03-05 06:35:00,
2013-03-05 01:40:00,28.3,16.9,30.07,WSW,248,0.0,0.4,62,0.00,,,0.00,WUHU216HW,2013-03-05 06:40:00,
2013-03-05 01:45:00,28.3,16.9,30.07,WSW,248,0.0,0.2,62,0.00,,,0.00,WUHU216HW,2013-03-05 06:45:00,
2013-03-05 01:50:00,28.4,17.1,30.07,WSW,248,0.0,0.0,62,0.00,,,0.00,WUHU216HW,2013-03-05 06:50:00,
2013-03-05 01:55:00,28.4,17.5,30.06,WSW,248,0.0,0.0,63,0.00,,,0.00,WUHU216HW,2013-03-05 06:55:00,
2013-03-05 02:00:00,28.3,17.3,30.06,WSW,248,0.0,0.0,63,0.00,,,0.00,WUHU216HW,2013-03-05 07:00:00,
2013-03-05 02:05:00,28.3,17.3,30.06,NW,315,0.0,0.0,63,0.00,,,0.00,WUHU216HW,2013-03-05 07:05:00,
2013-03-05 02:10:00,28.3,16.9,30.06,WNW,293,0.0,0.0,62,0.00,,,0.00,WUHU216HW,2013-03-05 07:10:00,
2013-03-05 02:15:00,28.4,17.5,30.06,West,270,0.2,0.7,63,0.00,,,0.00,WUHU216HW,2013-03-05 07:15:00,
2013-03-05 02:20:00,28.4,17.1,30.06,West,270,0.0,0.7,62,0.00,,,0.00,WUHU216HW,2013-03-05 07:20:00,
2013-03-05 02:25:00,28.6,17.7,30.06,WSW,248,0.0,0.7,63,0.00,,,0.00,WUHU216HW,2013-03-05 07:25:00,
2013-03-05 02:30:00,28.6,17.7,30.06,WSW,248,0.0,0.7,63,0.00,,,0.00,WUHU216HW,2013-03-05 07:30:00,
2013-03-05 02:35:00,28.6,17.7,30.07,WSW,248,0.9,0.9,63,0.00,,,0.00,WUHU216HW,2013-03-05 07:35:00,
2013-03-05 02:40:00,28.6,17.7,30.07,WSW,248,0.9,0.9,63,0.00,,,0.00,WUHU216HW,2013-03-05 07:40:00,
2013-03-05 02:45:00,28.6,18.0,30.07,SW,225,0.7,1.1,64,0.00,,,0.00,WUHU216HW,2013-03-05 07:45:00,
2013-03-05 02:50:00,28.6,19.1,30.07,SSW,203,0.0,1.1,67,0.00,,,0.00,WUHU216HW,2013-03-05 07:50:00,
2013-03-05 02:55:00,28.6,19.1,30.06,SSW,203,0.0,0.4,67,0.00,,,0.00,WUHU216HW,2013-03-05 07:55:00,
2013-03-05 03:00:00,28.4,18.5,30.07,SE,135,0.4,1.1,66,0.00,,,0.00,WUHU216HW,2013-03-05 08:00:00,
2013-03-05 03:05:00,28.4,18.2,30.07,SE,135,0.0,1.1,65,0.00,,,0.00,WUHU216HW,2013-03-05 08:05:00,
2013-03-05 03:10:00,28.4,18.5,30.06,SE,135,0.0,0.0,66,0.00,,,0.00,WUHU216HW,2013-03-05 08:10:00,
2013-03-05 03:15:00,28.4,18.9,30.06,SE,135,0.0,0.0,67,0.00,,,0.00,WUHU216HW,2013-03-05 08:15:00,
2013-03-05 03:20:00,28.4,18.9,30.06,SE,135,0.2,0.4,67,0.00,,,0.00,WUHU216HW,2013-03-05 08:20:00,
2013-03-05 03:25:00,28.3,19.1,30.06,SE,135,0.0,0.4,68,0.00,,,0.00,WUHU216HW,2013-03-05 08:25:00,
2013-03-05 03:30:00,28.3,19.8,30.06,SE,135,0.0,0.0,70,0.00,,,0.00,WUHU216HW,2013-03-05 08:30:00,
2013-03-05 03:35:00,28.1,19.6,30.06,NE,45,0.2,1.1,70,0.00,,,0.00,WUHU216HW,2013-03-05 08:35:00,
2013-03-05 03:40:00,28.1,19.6,30.05,NE,45,0.2,1.1,70,0.00,,,0.00,WUHU216HW,2013-03-05 08:40:00,
2013-03-05 03:45:00,28.1,19.6,30.05,NE,45,0.0,0.7,70,0.00,,,0.00,WUHU216HW,2013-03-05 08:45:00,
2013-03-05 03:50:00,28.3,19.1,30.05,NNE,23,0.0,0.4,68,0.00,,,0.00,WUHU216HW,2013-03-05 08:50:00,
2013-03-05 03:55:00,28.4,18.5,30.05,West,270,0.4,0.4,66,0.00,,,0.00,WUHU216HW,2013-03-05 08:55:00,
2013-03-05 04:00:00,28.4,18.5,30.05,West,270,0.0,0.4,66,0.00,,,0.00,WUHU216HW,2013-03-05 09:00:00,
2013-03-05 04:05:00,28.4,18.5,30.05,West,270,0.0,0.4,66,0.00,,,0.00,WUHU216HW,2013-03-05 09:05:00,
2013-03-05 04:10:00,28.6,19.5,30.05,West,270,0.0,0.0,68,0.00,,,0.00,WUHU216HW,2013-03-05 09:10:00,
2013-03-05 04:15:00,28.8,18.9,30.05,West,270,0.0,0.0,66,0.00,,,0.00,WUHU216HW,2013-03-05 09:15:00,
2013-03-05 04:20:00,29.0,19.0,30.05,West,270,0.0,0.0,66,0.00,,,0.00,WUHU216HW,2013-03-05 09:20:00,
2013-03-05 04:26:00,29.0,19.0,30.05,West,270,0.0,0.0,66,0.00,,,0.00,WUHU216HW,2013-03-05 09:26:00,
2013-03-05 04:31:00,29.2,19.2,30.05,West,270,0.0,0.0,66,0.00,,,0.00,WUHU216HW,2013-03-05 09:31:00,
2013-03-05 04:36:00,29.3,19.0,30.05,West,270,0.0,0.0,65,0.00,,,0.00,WUHU216HW,2013-03-05 09:36:00,
2013-03-05 04:41:00,29.3,19.4,30.05,West,270,0.0,0.0,66,0.00,,,0.00,WUHU216HW,2013-03-05 09:41:00,
2013-03-05 04:46:00,29.5,20.6,30.05,NNE,23,0.7,0.7,69,0.00,,,0.00,WUHU216HW,2013-03-05 09:46:00,
2013-03-05 04:51:00,29.5,20.6,30.05,NE,45,0.7,1.1,69,0.00,,,0.00,WUHU216HW,2013-03-05 09:51:00,
2013-03-05 04:56:00,29.5,19.9,30.05,ENE,68,0.4,1.1,67,0.00,,,0.00,WUHU216HW,2013-03-05 09:56:00,
2013-03-05 05:01:00,29.7,19.7,30.05,East,90,0.0,0.4,66,0.00,,,0.00,WUHU216HW,2013-03-05 10:01:00,
2013-03-05 05:06:00,29.9,19.8,30.05,East,90,0.4,0.4,66,0.00,,,0.00,WUHU216HW,2013-03-05 10:06:00,
2013-03-05 05:11:00,29.9,19.8,30.05,East,90,1.1,1.1,66,0.00,,,0.00,WUHU216HW,2013-03-05 10:11:00,
2013-03-05 05:16:00,29.9,19.8,30.05,ESE,113,0.0,1.8,66,0.00,,,0.00,WUHU216HW,2013-03-05 10:16:00,
2013-03-05 05:21:00,30.1,20.3,30.05,NNE,23,0.4,1.8,67,0.00,,,0.00,WUHU216HW,2013-03-05 10:21:00,
2013-03-05 05:26:00,30.2,20.2,30.04,ENE,68,1.1,1.6,66,0.00,,,0.00,WUHU216HW,2013-03-05 10:26:00,
2013-03-05 05:31:00,30.4,20.3,30.04,NE,45,0.4,1.6,66,0.00,,,0.00,WUHU216HW,2013-03-05 10:31:00,
2013-03-05 05:36:00,30.6,20.5,30.04,NNE,23,0.4,1.1,66,0.00,,,0.00,WUHU216HW,2013-03-05 10:36:00,
2013-03-05 05:41:00,30.6,19.8,30.05,NW,315,0.0,1.1,64,0.00,,,0.00,WUHU216HW,2013-03-05 10:41:00,
2013-03-05 05:46:00,31.0,19.8,30.05,West,270,0.0,0.0,63,0.00,,,0.00,WUHU216HW,2013-03-05 10:46:00,
2013-03-05 05:51:00,31.1,19.6,30.06,South,180,0.0,0.7,62,0.00,,,0.00,WUHU216HW,2013-03-05 10:51:00,
2013-03-05 05:56:00,31.1,20.0,30.06,WSW,248,0.0,0.7,63,0.00,,,0.00,WUHU216HW,2013-03-05 10:56:00,
2013-03-05 06:01:00,31.1,20.0,30.06,SW,225,0.4,0.4,63,0.00,,,0.00,WUHU216HW,2013-03-05 11:01:00,
2013-03-05 06:06:00,31.3,20.2,30.06,South,180,0.7,0.7,63,0.00,,,0.00,WUHU216HW,2013-03-05 11:06:00,
2013-03-05 06:11:00,31.3,20.2,30.06,SW,225,0.7,0.9,63,0.00,,,0.00,WUHU216HW,2013-03-05 11:11:00,
2013-03-05 06:16:00,31.3,21.2,30.06,South,180,0.2,0.9,66,0.00,,,0.00,WUHU216HW,2013-03-05 11:16:00,
2013-03-05 06:21:00,31.1,20.3,30.07,WSW,248,0.4,1.1,64,0.00,,,0.00,WUHU216HW,2013-03-05 11:21:00,
2013-03-05 06:26:00,30.8,20.3,30.07,WSW,248,0.4,1.1,65,0.00,,,0.00,WUHU216HW,2013-03-05 11:26:00,
2013-03-05 06:31:00,30.6,20.2,30.07,West,270,0.4,0.9,65,0.00,,,0.00,WUHU216HW,2013-03-05 11:31:00,
2013-03-05 06:36:00,30.6,20.5,30.06,North,0,0.0,0.4,66,0.00,,,0.00,WUHU216HW,2013-03-05 11:36:00,
2013-03-05 06:41:00,30.6,20.2,30.06,NW,315,0.0,0.2,65,0.00,,,0.00,WUHU216HW,2013-03-05 11:41:00,
2013-03-05 06:46:00,30.8,20.3,30.06,WNW,293,0.2,0.2,65,0.00,,,0.00,WUHU216HW,2013-03-05 11:46:00,
2013-03-05 06:51:00,30.6,20.5,30.06,WNW,293,0.0,0.4,66,0.00,,,0.00,WUHU216HW,2013-03-05 11:51:00,
2013-03-05 06:56:00,30.8,20.7,30.06,NW,315,0.4,0.7,66,0.00,,,0.00,WUHU216HW,2013-03-05 11:56:00,
2013-03-05 07:01:00,30.8,20.7,30.06,NW,315,0.0,0.7,66,0.00,,,0.00,WUHU216HW,2013-03-05 12:01:00,
2013-03-05 07:06:00,30.8,20.7,30.06,NW,315,0.0,0.7,66,0.00,,,0.00,WUHU216HW,2013-03-05 12:06:00,
2013-03-05 07:11:00,31.1,21.4,30.06,NE,45,0.4,0.4,67,0.00,,,0.00,WUHU216HW,2013-03-05 12:11:00,
2013-03-05 07:16:00,31.3,21.2,30.06,East,90,0.0,0.4,66,0.00,,,0.00,WUHU216HW,2013-03-05 12:16:00,
2013-03-05 07:21:00,31.5,21.4,30.06,East,90,0.0,0.4,66,0.00,,,0.00,WUHU216HW,2013-03-05 12:21:00,
2013-03-05 07:26:00,31.9,21.8,30.06,East,90,0.0,0.4,66,0.00,,,0.00,WUHU216HW,2013-03-05 12:26:00,
2013-03-05 07:31:00,32.0,21.6,30.06,North,0,0.0,0.0,65,0.00,,,0.00,WUHU216HW,2013-03-05 12:31:00,
2013-03-05 07:36:00,32.2,21.4,30.06,NNW,338,0.0,0.4,64,0.00,,,0.00,WUHU216HW,2013-03-05 12:36:00,
2013-03-05 07:41:00,32.4,22.0,30.05,North,0,0.0,0.4,65,0.00,,,0.00,WUHU216HW,2013-03-05 12:41:00,
2013-03-05 07:46:00,32.6,21.7,30.05,NNW,338,0.0,0.7,64,0.00,,,0.00,WUHU216HW,2013-03-05 12:46:00,
2013-03-05 07:51:00,32.8,21.9,30.05,North,0,0.4,0.7,64,0.00,,,0.00,WUHU216HW,2013-03-05 12:51:00,
2013-03-05 07:56:00,33.1,21.9,30.05,North,0,0.0,0.4,63,0.00,,,0.00,WUHU216HW,2013-03-05 12:56:00,
2013-03-05 08:01:00,33.5,22.1,30.05,NNE,23,0.0,0.2,63,0.00,,,0.00,WUHU216HW,2013-03-05 13:01:00,
2013-03-05 08:06:00,34.0,22.7,30.05,ENE,68,0.7,0.7,63,0.00,,,0.00,WUHU216HW,2013-03-05 13:06:00,
2013-03-05 08:11:00,34.4,22.7,30.05,ESE,113,0.4,1.3,62,0.00,,,0.00,WUHU216HW,2013-03-05 13:11:00,
2013-03-05 08:16:00,34.9,23.2,30.05,ESE,113,0.2,1.3,62,0.00,,,0.00,WUHU216HW,2013-03-05 13:16:00,
2013-03-05 08:21:00,35.5,23.8,30.05,ESE,113,0.4,0.9,62,0.00,,,0.00,WUHU216HW,2013-03-05 13:21:00,
2013-03-05 08:26:00,36.2,24.0,30.05,East,90,1.3,1.3,61,0.00,,,0.00,WUHU216HW,2013-03-05 13:26:00,
2013-03-05 08:31:00,36.9,24.8,30.05,East,90,1.1,1.3,61,0.00,,,0.00,WUHU216HW,2013-03-05 13:31:00,
2013-03-05 08:36:00,37.6,25.0,30.05,ESE,113,0.4,1.3,60,0.00,,,0.00,WUHU216HW,2013-03-05 13:36:00,
2013-03-05 08:41:00,38.3,25.2,30.05,ENE,68,0.9,1.3,59,0.00,,,0.00,WUHU216HW,2013-03-05 13:41:00,
2013-03-05 08:46:00,39.2,25.2,30.05,ENE,68,1.8,1.8,57,0.00,,,0.00,WUHU216HW,2013-03-05 13:46:00,
2013-03-05 08:51:00,40.0,24.1,30.04,ESE,113,0.9,1.8,53,0.00,,,0.00,WUHU216HW,2013-03-05 13:51:00,
2013-03-05 08:56:00,40.5,25.5,30.04,East,90,0.7,1.3,55,0.00,,,0.00,WUHU216HW,2013-03-05 13:56:00,
2013-03-05 09:01:00,41.2,24.9,30.04,East,90,1.6,1.6,52,0.00,,,0.00,WUHU216HW,2013-03-05 14:01:00,
2013-03-05 09:06:00,42.1,26.2,30.04,ESE,113,1.8,1.8,53,0.00,,,0.00,WUHU216HW,2013-03-05 14:06:00,
2013-03-05 09:11:00,42.7,26.6,30.04,SE,135,1.1,1.8,53,0.00,,,0.00,WUHU216HW,2013-03-05 14:11:00,
2013-03-05 09:16:00,42.8,25.6,30.04,East,90,0.9,1.8,50,0.00,,,0.00,WUHU216HW,2013-03-05 14:16:00,
2013-03-05 09:21:00,42.8,25.6,30.04,SE,135,0.7,1.6,50,0.00,,,0.00,WUHU216HW,2013-03-05 14:21:00,
2013-03-05 09:26:00,43.0,25.8,30.04,SE,135,0.9,1.1,50,0.00,,,0.00,WUHU216HW,2013-03-05 14:26:00,
2013-03-05 09:31:00,43.4,24.9,30.04,SE,135,0.4,1.3,48,0.00,,,0.00,WUHU216HW,2013-03-05 14:31:00,
2013-03-05 09:36:00,43.2,23.2,30.04,NW,315,0.7,1.3,45,0.00,,,0.00,WUHU216HW,2013-03-05 14:36:00,
2013-03-05 09:41:00,42.8,22.9,30.04,WNW,293,0.9,0.9,45,0.00,,,0.00,WUHU216HW,2013-03-05 14:41:00,
2013-03-05 09:46:00,42.8,23.4,30.04,WSW,248,0.9,1.8,46,0.00,,,0.00,WUHU216HW,2013-03-05 14:46:00,
2013-03-05 09:51:00,42.7,23.2,30.03,SW,225,1.8,1.8,46,0.00,,,0.00,WUHU216HW,2013-03-05 14:51:00,
2013-03-05 09:56:00,43.2,23.8,30.03,South,180,0.4,1.8,46,0.00,,,0.00,WUHU216HW,2013-03-05 14:56:00,
2013-03-05 10:01:00,43.4,22.8,30.03,NNW,338,1.1,1.6,44,0.00,,,0.00,WUHU216HW,2013-03-05 15:01:00,
2013-03-05 10:06:00,43.4,23.3,30.03,SW,225,0.9,2.2,45,0.00,,,0.00,WUHU216HW,2013-03-05 15:06:00,
2013-03-05 10:11:00,43.7,23.1,30.03,WSW,248,1.6,2.7,44,0.00,,,0.00,WUHU216HW,2013-03-05 15:11:00,
2013-03-05 10:16:00,44.3,23.0,30.02,NW,315,0.4,2.7,43,0.00,,,0.00,WUHU216HW,2013-03-05 15:16:00,
2013-03-05 10:21:00,44.3,22.5,30.02,SW,225,1.3,2.5,42,0.00,,,0.00,WUHU216HW,2013-03-05 15:21:00,
2013-03-05 10:26:00,45.4,24.0,30.02,WSW,248,1.6,2.5,43,0.00,,,0.00,WUHU216HW,2013-03-05 15:26:00,
2013-03-05 10:31:00,45.5,23.1,30.01,WNW,293,1.1,2.7,41,0.00,,,0.00,WUHU216HW,2013-03-05 15:31:00,
2013-03-05 10:36:00,45.9,23.5,30.01,South,180,0.2,2.7,41,0.00,,,0.00,WUHU216HW,2013-03-05 15:36:00,
2013-03-05 10:41:00,46.3,23.2,30.01,West,270,0.2,2.2,40,0.00,,,0.00,WUHU216HW,2013-03-05 15:41:00,
2013-03-05 10:46:00,46.4,24.5,30.01,NW,315,2.5,2.5,42,0.00,,,0.00,WUHU216HW,2013-03-05 15:46:00,
2013-03-05 10:51:00,46.1,23.6,30.01,WNW,293,0.9,2.5,41,0.00,,,0.00,WUHU216HW,2013-03-05 15:51:00,
2013-03-05 10:56:00,46.4,24.5,30.01,North,0,1.8,2.0,42,0.00,,,0.00,WUHU216HW,2013-03-05 15:56:00,
2013-03-05 11:01:00,47.2,25.1,30.00,North,0,0.2,2.0,42,0.00,,,0.00,WUHU216HW,2013-03-05 16:01:00,
2013-03-05 11:06:00,47.2,24.6,30.00,West,270,1.8,1.8,41,0.00,,,0.00,WUHU216HW,2013-03-05 16:06:00,
2013-03-05 11:11:00,46.6,24.1,30.00,WSW,248,0.4,1.8,41,0.00,,,0.00,WUHU216HW,2013-03-05 16:11:00,
2013-03-05 11:16:00,46.4,24.5,30.00,NW,315,0.4,1.1,42,0.00,,,0.00,WUHU216HW,2013-03-05 16:16:00,
2013-03-05 11:21:00,46.4,24.5,29.99,SW,225,1.1,1.6,42,0.00,,,0.00,WUHU216HW,2013-03-05 16:21:00,
2013-03-05 11:26:00,46.4,23.4,29.99,NW,315,0.0,1.6,40,0.00,,,0.00,WUHU216HW,2013-03-05 16:26:00,
2013-03-05 11:31:00,46.6,24.1,29.99,NNE,23,0.4,0.7,41,0.00,,,0.00,WUHU216HW,2013-03-05 16:31:00,
2013-03-05 11:36:00,47.2,25.1,29.99,WSW,248,0.9,2.9,42,0.00,,,0.00,WUHU216HW,2013-03-05 16:36:00,
2013-03-05 11:41:00,47.7,23.2,29.99,NNW,338,0.4,2.9,38,0.00,,,0.00,WUHU216HW,2013-03-05 16:41:00,
2013-03-05 11:46:00,47.9,24.7,29.98,NW,315,0.9,1.1,40,0.00,,,0.00,WUHU216HW,2013-03-05 16:46:00,
2013-03-05 11:51:00,47.9,24.7,29.98,SW,225,0.9,2.0,40,0.00,,,0.00,WUHU216HW,2013-03-05 16:51:00,
2013-03-05 11:56:00,47.9,24.7,29.98,SW,225,1.1,2.0,40,0.00,,,0.00,WUHU216HW,2013-03-05 16:56:00,
2013-03-05 12:01:00,47.7,23.2,29.98,SSW,203,0.7,2.2,38,0.00,,,0.00,WUHU216HW,2013-03-05 17:01:00,
2013-03-05 12:06:00,47.9,24.0,29.97,North,0,0.4,2.2,39,0.00,,,0.00,WUHU216HW,2013-03-05 17:06:00,
2013-03-05 12:11:00,48.2,22.3,29.97,North,0,1.6,2.2,36,0.00,,,0.00,WUHU216HW,2013-03-05 17:11:00,
2013-03-05 12:16:00,48.6,24.7,29.97,SSW,203,0.4,2.2,39,0.00,,,0.00,WUHU216HW,2013-03-05 17:16:00,
2013-03-05 12:21:00,49.1,25.8,29.97,SW,225,0.4,1.1,40,0.00,,,0.00,WUHU216HW,2013-03-05 17:21:00,
2013-03-05 12:26:00,49.1,25.8,29.97,WSW,248,1.1,2.0,40,0.00,,,0.00,WUHU216HW,2013-03-05 17:26:00,
2013-03-05 12:31:00,49.7,25.7,29.97,NW,315,1.3,2.0,39,0.00,,,0.00,WUHU216HW,2013-03-05 17:31:00,
2013-03-05 12:36:00,49.9,25.8,29.97,SE,135,1.8,1.8,39,0.00,,,0.00,WUHU216HW,2013-03-05 17:36:00,
2013-03-05 12:41:00,50.0,27.2,29.97,SE,135,1.1,1.8,41,0.00,,,0.00,WUHU216HW,2013-03-05 17:41:00,
2013-03-05 12:46:00,50.0,26.6,29.96,SW,225,1.8,1.8,40,0.00,,,0.00,WUHU216HW,2013-03-05 17:46:00,
2013-03-05 12:51:00,50.0,25.3,29.96,NNE,23,0.4,1.8,38,0.00,,,0.00,WUHU216HW,2013-03-05 17:51:00,
2013-03-05 12:56:00,50.2,26.8,29.95,NNW,338,1.8,1.8,40,0.00,,,0.00,WUHU216HW,2013-03-05 17:56:00,
2013-03-05 13:01:00,49.9,25.8,29.95,NW,315,0.0,1.8,39,0.00,,,0.00,WUHU216HW,2013-03-05 18:01:00,
2013-03-05 13:06:00,49.9,26.5,29.95,NNE,23,0.0,2.5,40,0.00,,,0.00,WUHU216HW,2013-03-05 18:06:00,
2013-03-05 13:11:00,49.7,25.7,29.94,SW,225,1.6,2.5,39,0.00,,,0.00,WUHU216HW,2013-03-05 18:11:00,
2013-03-05 13:16:00,49.5,25.5,29.94,West,270,1.8,1.8,39,0.00,,,0.00,WUHU216HW,2013-03-05 18:16:00,
2013-03-05 13:21:00,49.1,25.8,29.94,NNW,338,0.4,2.2,40,0.00,,,0.00,WUHU216HW,2013-03-05 18:21:00,
2013-03-05 13:26:00,49.3,25.3,29.93,SE,135,0.7,2.2,39,0.00,,,0.00,WUHU216HW,2013-03-05 18:26:00,
2013-03-05 13:31:00,50.0,25.9,29.93,WSW,248,2.0,2.0,39,0.00,,,0.00,WUHU216HW,2013-03-05 18:31:00,
2013-03-05 13:36:00,49.9,26.5,29.93,WNW,293,1.8,2.0,40,0.00,,,0.00,WUHU216HW,2013-03-05 18:36:00,
2013-03-05 13:41:00,49.5,25.5,29.92,WSW,248,2.9,2.9,39,0.00,,,0.00,WUHU216HW,2013-03-05 18:41:00,
2013-03-05 13:46:00,49.7,25.7,29.92,NW,315,1.1,2.9,39,0.00,,,0.00,WUHU216HW,2013-03-05 18:46:00,
2013-03-05 13:51:00,49.7,26.3,29.92,WSW,248,1.1,1.6,40,0.00,,,0.00,WUHU216HW,2013-03-05 18:51:00,
2013-03-05 13:56:00,50.0,26.6,29.92,East,90,1.6,1.6,40,0.00,,,0.00,WUHU216HW,2013-03-05 18:56:00,
2013-03-05 14:01:00,50.9,27.5,29.91,East,90,0.7,1.8,40,0.00,,,0.00,WUHU216HW,2013-03-05 19:01:00,
2013-03-05 14:06:00,51.7,28.1,29.91,SE,135,0.4,1.8,40,0.00,,,0.00,WUHU216HW,2013-03-05 19:06:00,
2013-03-05 14:11:00,52.0,28.5,29.90,SSE,158,0.2,1.3,40,0.00,,,0.00,WUHU216HW,2013-03-05 19:11:00,
2013-03-05 14:16:00,52.2,26.6,29.90,ENE,68,0.4,1.8,37,0.00,,,0.00,WUHU216HW,2013-03-05 19:16:00,
2013-03-05 14:21:00,52.0,27.7,29.90,WSW,248,1.1,1.8,39,0.00,,,0.00,WUHU216HW,2013-03-05 19:21:00,
2013-03-05 14:26:00,52.2,28.6,29.89,NE,45,0.4,1.1,40,0.00,,,0.00,WUHU216HW,2013-03-05 19:26:00,
2013-03-05 14:31:00,52.2,27.9,29.89,ESE,113,1.3,2.5,39,0.00,,,0.00,WUHU216HW,2013-03-05 19:31:00,
2013-03-05 14:36:00,51.8,26.9,29.88,ENE,68,1.1,4.0,38,0.00,,,0.00,WUHU216HW,2013-03-05 19:36:00,
2013-03-05 14:41:00,51.7,26.7,29.88,ENE,68,2.9,4.0,38,0.00,,,0.00,WUHU216HW,2013-03-05 19:41:00,
2013-03-05 14:46:00,51.5,26.6,29.88,NE,45,1.8,2.9,38,0.00,,,0.00,WUHU216HW,2013-03-05 19:46:00,
2013-03-05 14:51:00,51.5,26.6,29.89,NE,45,1.8,2.7,38,0.00,,,0.00,WUHU216HW,2013-03-05 19:51:00,
2013-03-05 14:56:00,51.7,28.1,29.89,East,90,2.2,3.8,40,0.00,,,0.00,WUHU216HW,2013-03-05 19:56:00,
2013-03-05 15:01:00,51.7,28.1,29.89,SE,135,5.4,5.4,40,0.00,,,0.00,WUHU216HW,2013-03-05 20:01:00,
2013-03-05 15:06:00,51.1,28.2,29.89,SE,135,8.5,8.5,41,0.00,,,0.00,WUHU216HW,2013-03-05 20:06:00,
2013-03-05 15:11:00,50.6,28.3,29.89,East,90,4.5,8.5,42,0.00,,,0.00,WUHU216HW,2013-03-05 20:11:00,
2013-03-05 15:16:00,50.4,28.1,29.89,SE,135,5.6,7.4,42,0.00,,,0.00,WUHU216HW,2013-03-05 20:16:00,
2013-03-05 15:21:00,50.0,27.7,29.89,ESE,113,4.3,7.4,42,0.00,,,0.00,WUHU216HW,2013-03-05 20:21:00,
2013-03-05 15:26:00,49.5,27.8,29.89,SE,135,6.3,7.4,43,0.00,,,0.00,WUHU216HW,2013-03-05 20:26:00,
2013-03-05 15:32:00,49.1,28.0,29.89,ESE,113,3.8,7.4,44,0.00,,,0.00,WUHU216HW,2013-03-05 20:32:00,
2013-03-05 15:37:00,48.8,27.7,29.89,SE,135,6.7,6.9,44,0.00,,,0.00,WUHU216HW,2013-03-05 20:37:00,
2013-03-05 15:42:00,48.4,27.9,29.89,SE,135,4.9,7.2,45,0.00,,,0.00,WUHU216HW,2013-03-05 20:42:00,
2013-03-05 15:47:00,48.1,27.5,29.89,SE,135,3.8,7.2,45,0.00,,,0.00,WUHU216HW,2013-03-05 20:47:00,
2013-03-05 15:52:00,47.9,27.9,29.89,East,90,2.5,5.4,46,0.00,,,0.00,WUHU216HW,2013-03-05 20:52:00,
2013-03-05 15:57:00,47.9,27.9,29.89,ESE,113,5.4,6.3,46,0.00,,,0.00,WUHU216HW,2013-03-05 20:57:00,
2013-03-05 16:02:00,47.5,28.2,29.89,ESE,113,2.0,6.3,47,0.00,,,0.00,WUHU216HW,2013-03-05 21:02:00,
2013-03-05 16:07:00,47.5,28.7,29.89,SE,135,5.4,6.5,48,0.00,,,0.00,WUHU216HW,2013-03-05 21:07:00,
2013-03-05 16:12:00,47.3,28.5,29.89,ESE,113,5.4,6.5,48,0.00,,,0.00,WUHU216HW,2013-03-05 21:12:00,
2013-03-05 16:17:00,47.2,28.9,29.89,SE,135,6.3,6.3,49,0.00,,,0.00,WUHU216HW,2013-03-05 21:17:00,
2013-03-05 16:22:00,47.0,29.3,29.88,SE,135,5.1,6.9,50,0.00,,,0.00,WUHU216HW,2013-03-05 21:22:00,
2013-03-05 16:27:00,46.8,29.2,29.88,ESE,113,2.5,6.9,50,0.00,,,0.00,WUHU216HW,2013-03-05 21:27:00,
2013-03-05 16:32:00,46.6,29.0,29.88,East,90,4.0,4.0,50,0.00,,,0.00,WUHU216HW,2013-03-05 21:32:00,
2013-03-05 16:37:00,46.6,29.0,29.88,East,90,2.5,5.1,50,0.00,,,0.00,WUHU216HW,2013-03-05 21:37:00,
2013-03-05 16:42:00,46.4,29.3,29.88,ESE,113,5.6,5.6,51,0.00,,,0.00,WUHU216HW,2013-03-05 21:42:00,
2013-03-05 16:47:00,46.1,28.9,29.88,East,90,4.5,6.3,51,0.00,,,0.00,WUHU216HW,2013-03-05 21:47:00,
2013-03-05 16:52:00,45.9,29.3,29.88,East,90,5.4,6.3,52,0.00,,,0.00,WUHU216HW,2013-03-05 21:52:00,
2013-03-05 16:57:00,45.7,29.1,29.88,East,90,3.6,5.6,52,0.00,,,0.00,WUHU216HW,2013-03-05 21:57:00,
2013-03-05 17:02:00,45.7,29.5,29.87,SE,135,6.0,6.9,53,0.00,,,0.00,WUHU216HW,2013-03-05 22:02:00,
2013-03-05 17:07:00,45.7,29.5,29.87,East,90,4.0,6.9,53,0.00,,,0.00,WUHU216HW,2013-03-05 22:07:00,
2013-03-05 17:12:00,45.7,30.0,29.87,East,90,6.3,6.9,54,0.00,,,0.00,WUHU216HW,2013-03-05 22:12:00,
2013-03-05 17:17:00,45.5,29.8,29.87,ESE,113,4.0,6.3,54,0.00,,,0.00,WUHU216HW,2013-03-05 22:17:00,
2013-03-05 17:22:00,45.4,29.6,29.87,ESE,113,4.0,5.4,54,0.00,,,0.00,WUHU216HW,2013-03-05 22:22:00,
2013-03-05 17:27:00,45.4,30.1,29.86,East,90,2.9,4.9,55,0.00,,,0.00,WUHU216HW,2013-03-05 22:27:00,
2013-03-05 17:32:00,45.2,29.9,29.87,ESE,113,5.4,5.4,55,0.00,,,0.00,WUHU216HW,2013-03-05 22:32:00,
2013-03-05 17:37:00,45.0,29.8,29.87,East,90,5.1,5.6,55,0.00,,,0.00,WUHU216HW,2013-03-05 22:37:00,
2013-03-05 17:42:00,45.0,30.3,29.86,ESE,113,2.2,5.6,56,0.00,,,0.00,WUHU216HW,2013-03-05 22:42:00,
2013-03-05 17:47:00,44.8,29.6,29.86,ESE,113,3.4,5.6,55,0.00,,,0.00,WUHU216HW,2013-03-05 22:47:00,
2013-03-05 17:52:00,44.6,29.4,29.86,ESE,113,5.4,5.4,55,0.00,,,0.00,WUHU216HW,2013-03-05 22:52:00,
2013-03-05 17:57:00,44.5,29.3,29.86,SE,135,4.0,5.4,55,0.00,,,0.00,WUHU216HW,2013-03-05 22:57:00,
2013-03-05 18:02:00,44.5,29.3,29.86,ESE,113,4.7,5.6,55,0.00,,,0.00,WUHU216HW,2013-03-05 23:02:00,
2013-03-05 18:07:00,44.3,29.1,29.86,ESE,113,2.2,5.6,55,0.00,,,0.00,WUHU216HW,2013-03-05 23:07:00,
2013-03-05 18:12:00,44.3,29.1,29.86,SE,135,6.5,7.8,55,0.00,,,0.00,WUHU216HW,2013-03-05 23:12:00,
2013-03-05 18:17:00,44.1,29.3,29.86,East,90,1.8,7.8,56,0.00,,,0.00,WUHU216HW,2013-03-05 23:17:00,
2013-03-05 18:22:00,43.9,29.2,29.86,ESE,113,2.7,7.2,56,0.00,,,0.00,WUHU216HW,2013-03-05 23:22:00,
2013-03-05 18:27:00,43.9,29.6,29.86,East,90,4.7,5.8,57,0.00,,,0.00,WUHU216HW,2013-03-05 23:27:00,
2013-03-05 18:32:00,43.7,29.0,29.86,ESE,113,2.5,5.8,56,0.00,,,0.00,WUHU216HW,2013-03-05 23:32:00,
2013-03-05 18:37:00,43.7,29.0,29.86,East,90,2.5,4.0,56,0.00,,,0.00,WUHU216HW,2013-03-05 23:37:00,
2013-03-05 18:42:00,43.6,28.8,29.86,ESE,113,2.5,3.4,56,0.00,,,0.00,WUHU216HW,2013-03-05 23:42:00,
2013-03-05 18:47:00,43.6,28.8,29.85,NE,45,1.8,3.6,56,0.00,,,0.00,WUHU216HW,2013-03-05 23:47:00,
2013-03-05 18:52:00,43.6,29.3,29.85,East,90,3.8,5.4,57,0.00,,,0.00,WUHU216HW,2013-03-05 23:52:00,
2013-03-05 18:57:00,43.6,29.3,29.85,ESE,113,3.1,5.4,57,0.00,,,0.00,WUHU216HW,2013-03-05 23:57:00,
2013-03-05 19:02:00,43.6,29.3,29.85,East,90,3.6,4.3,57,0.00,,,0.00,WUHU216HW,2013-03-06 00:02:00,
2013-03-05 19:07:00,43.6,28.8,29.85,East,90,4.7,4.9,56,0.00,,,0.00,WUHU216HW,2013-03-06 00:07:00,
2013-03-05 19:12:00,43.6,28.8,29.85,East,90,3.1,4.9,56,0.00,,,0.00,WUHU216HW,2013-03-06 00:12:00,
2013-03-05 19:17:00,43.4,28.7,29.85,East,90,3.6,4.0,56,0.00,,,0.00,WUHU216HW,2013-03-06 00:17:00,
2013-03-05 19:22:00,43.4,28.7,29.84,ESE,113,3.4,5.4,56,0.00,,,0.00,WUHU216HW,2013-03-06 00:22:00,
2013-03-05 19:27:00,43.4,28.3,29.84,ESE,113,2.7,5.6,55,0.00,,,0.00,WUHU216HW,2013-03-06 00:27:00,
2013-03-05 19:32:00,43.4,28.3,29.83,ENE,68,8.5,8.5,55,0.00,,,0.00,WUHU216HW,2013-03-06 00:32:00,
2013-03-05 19:37:00,43.2,28.1,29.83,East,90,5.4,10.1,55,0.00,,,0.00,WUHU216HW,2013-03-06 00:37:00,
2013-03-05 19:42:00,43.0,28.4,29.82,ENE,68,6.9,10.1,56,0.00,,,0.00,WUHU216HW,2013-03-06 00:42:00,
2013-03-05 19:47:00,42.8,28.2,29.82,ENE,68,4.7,9.2,56,0.00,,,0.00,WUHU216HW,2013-03-06 00:47:00,
2013-03-05 19:52:00,42.7,28.5,29.82,East,90,7.2,9.8,57,0.00,,,0.00,WUHU216HW,2013-03-06 00:52:00,
2013-03-05 19:57:00,42.5,28.3,29.81,SE,135,7.6,9.8,57,0.00,,,0.00,WUHU216HW,2013-03-06 00:57:00,
2013-03-05 20:02:00,42.3,28.1,29.81,East,90,8.1,12.8,57,0.00,,,0.00,WUHU216HW,2013-03-06 01:02:00,
2013-03-05 20:07:00,42.1,28.4,29.81,ESE,113,7.8,12.8,58,0.00,,,0.00,WUHU216HW,2013-03-06 01:07:00,
2013-03-05 20:12:00,41.9,28.2,29.81,ENE,68,5.1,9.4,58,0.00,,,0.00,WUHU216HW,2013-03-06 01:12:00,
2013-03-05 20:17:00,41.8,28.4,29.81,ESE,113,10.1,11.2,59,0.00,,,0.00,WUHU216HW,2013-03-06 01:17:00,
2013-03-05 20:22:00,41.4,28.6,29.81,East,90,6.9,11.2,60,0.00,,,0.00,WUHU216HW,2013-03-06 01:22:00,
2013-03-05 20:27:00,41.2,28.8,29.81,East,90,6.9,11.2,61,0.00,,,0.00,WUHU216HW,2013-03-06 01:27:00,
2013-03-05 20:32:00,41.0,29.0,29.81,SE,135,6.3,11.2,62,0.00,,,0.00,WUHU216HW,2013-03-06 01:32:00,
2013-03-05 20:37:00,40.9,28.8,29.82,ENE,68,4.5,7.8,62,0.00,,,0.00,WUHU216HW,2013-03-06 01:37:00,
2013-03-05 20:42:00,40.7,28.6,29.82,SE,135,9.8,9.8,62,0.00,,,0.00,WUHU216HW,2013-03-06 01:42:00,
2013-03-05 20:47:00,40.0,29.8,29.82,East,90,9.6,12.8,67,0.00,,,0.00,WUHU216HW,2013-03-06 01:47:00,
2013-03-05 20:52:00,39.2,29.1,29.83,East,90,4.7,12.8,67,0.00,,,0.00,WUHU216HW,2013-03-06 01:52:00,
2013-03-05 20:57:00,38.3,29.1,29.83,ESE,113,3.6,10.7,69,0.00,,,0.00,WUHU216HW,2013-03-06 01:57:00,
2013-03-05 21:02:00,37.4,29.9,29.82,ENE,68,1.1,6.9,74,0.00,,,0.00,WUHU216HW,2013-03-06 02:02:00,
2013-03-05 21:07:00,36.7,30.5,29.81,NE,45,1.6,3.1,78,0.00,,,0.00,WUHU216HW,2013-03-06 02:07:00,
2013-03-05 21:12:00,36.4,28.8,29.81,NE,45,1.3,2.7,74,0.00,,,0.00,WUHU216HW,2013-03-06 02:12:00,
2013-03-05 21:17:00,36.4,29.5,29.80,East,90,1.6,3.8,76,0.01,,,0.00,WUHU216HW,2013-03-06 02:17:00,
2013-03-05 21:22:00,36.2,29.4,29.80,East,90,2.0,3.8,76,0.01,,,0.01,WUHU216HW,2013-03-06 02:22:00,
2013-03-05 21:27:00,36.0,29.2,29.80,East,90,2.9,3.4,76,0.01,,,0.01,WUHU216HW,2013-03-06 02:27:00,
2013-03-05 21:32:00,35.6,30.3,29.80,NE,45,3.4,3.4,81,0.01,,,0.01,WUHU216HW,2013-03-06 02:32:00,
2013-03-05 21:37:00,35.3,31.1,29.79,North,0,3.4,3.4,85,0.01,,,0.01,WUHU216HW,2013-03-06 02:37:00,
2013-03-05 21:42:00,34.9,30.8,29.79,NE,45,1.8,3.4,85,0.01,,,0.01,WUHU216HW,2013-03-06 02:42:00,
2013-03-05 21:47:00,34.6,30.7,29.79,NE,45,1.8,2.5,86,0.01,,,0.01,WUHU216HW,2013-03-06 02:47:00,
2013-03-05 21:52:00,34.4,30.5,29.79,NE,45,1.6,2.5,86,0.01,,,0.01,WUHU216HW,2013-03-06 02:52:00,
2013-03-05 21:57:00,34.2,30.3,29.80,NE,45,1.1,1.8,86,0.01,,,0.01,WUHU216HW,2013-03-06 02:57:00,
2013-03-05 22:02:00,34.2,31.0,29.79,NE,45,1.6,2.9,88,0.01,,,0.01,WUHU216HW,2013-03-06 03:02:00,
2013-03-05 22:07:00,34.2,31.2,29.79,NE,45,3.4,3.4,89,0.01,,,0.01,WUHU216HW,2013-03-06 03:07:00,
2013-03-05 22:12:00,34.2,30.6,29.79,NE,45,1.8,3.4,87,0.01,,,0.01,WUHU216HW,2013-03-06 03:12:00,
2013-03-05 22:17:00,34.0,29.9,29.79,NE,45,1.1,2.7,85,0.00,,,0.01,WUHU216HW,2013-03-06 03:17:00,
2013-03-05 22:22:00,34.0,30.4,29.79,NE,45,1.8,2.7,87,0.00,,,0.01,WUHU216HW,2013-03-06 03:22:00,
2013-03-05 22:27:00,34.0,30.8,29.78,NE,45,3.4,3.6,88,0.00,,,0.01,WUHU216HW,2013-03-06 03:27:00,
2013-03-05 22:33:00,34.0,31.1,29.78,NE,45,2.5,4.0,89,0.00,,,0.01,WUHU216HW,2013-03-06 03:33:00,
2013-03-05 22:38:00,33.8,31.1,29.78,NE,45,5.4,5.4,90,0.00,,,0.01,WUHU216HW,2013-03-06 03:38:00,
2013-03-05 22:43:00,33.8,30.6,29.77,NE,45,2.7,5.4,88,0.00,,,0.01,WUHU216HW,2013-03-06 03:43:00,
2013-03-05 22:48:00,33.8,31.1,29.77,NE,45,2.2,3.4,90,0.00,,,0.01,WUHU216HW,2013-03-06 03:48:00,
2013-03-05 22:53:00,33.7,31.0,29.77,NE,45,2.2,3.4,90,0.00,,,0.01,WUHU216HW,2013-03-06 03:53:00,
2013-03-05 22:58:00,33.7,31.0,29.76,NE,45,1.3,2.5,90,0.00,,,0.01,WUHU216HW,2013-03-06 03:58:00,
2013-03-05 23:03:00,33.7,31.2,29.76,NE,45,2.2,2.5,91,0.00,,,0.01,WUHU216HW,2013-03-06 04:03:00,
2013-03-05 23:08:00,33.7,31.2,29.75,NE,45,2.9,2.9,91,0.00,,,0.01,WUHU216HW,2013-03-06 04:08:00,
2013-03-05 23:13:00,33.5,30.8,29.75,NE,45,1.1,2.9,90,0.00,,,0.01,WUHU216HW,2013-03-06 04:13:00,
2013-03-05 23:18:00,33.5,31.1,29.74,NE,45,2.7,2.7,91,0.00,,,0.01,WUHU216HW,2013-03-06 04:18:00,
2013-03-05 23:23:00,33.5,31.1,29.74,NE,45,1.1,2.7,91,0.00,,,0.01,WUHU216HW,2013-03-06 04:23:00,
2013-03-05 23:28:00,33.5,30.5,29.75,NE,45,0.9,1.8,89,0.00,,,0.01,WUHU216HW,2013-03-06 04:28:00,
2013-03-05 23:33:00,33.5,31.1,29.74,NE,45,0.0,0.9,91,0.00,,,0.01,WUHU216HW,2013-03-06 04:33:00,
2013-03-05 23:38:00,33.5,31.1,29.74,NE,45,0.0,0.7,91,0.00,,,0.01,WUHU216HW,2013-03-06 04:38:00,
2013-03-05 23:43:00,33.7,31.5,29.74,NE,45,0.0,0.0,92,0.00,,,0.01,WUHU216HW,2013-03-06 04:43:00,
2013-03-05 23:48:00,33.5,31.1,29.74,NE,45,0.0,0.0,91,0.00,,,0.01,WUHU216HW,2013-03-06 04:48:00,
2013-03-05 23:53:00,33.5,31.1,29.74,NE,45,0.0,0.0,91,0.01,,,0.02,WUHU216HW,2013-03-06 04:53:00,
2013-03-05 23:58:00,33.5,31.1,29.73,NE,45,0.0,0.0,91,0.01,,,0.02,WUHU216HW,2013-03-06 04:58:00,